sensor_id;sensor_type;location;lat;lon;timestamp;pressure;altitude;pressure_sealevel;temperature;humidity
78894;BME280;68282;42.698;23.350;2024-03-22T00:00:14;95531.34;;;10.16;41.65
78894;BME280;68282;42.698;23.350;2024-03-22T00:02:40;95507.72;;;10.59;43.26
78894;BME280;68282;42.698;23.350;2024-03-22T00:05:06;95525.38;;;10.80;36.41
78894;BME280;68282;42.698;23.350;2024-03-22T00:07:31;95523.34;;;10.64;36.24
78894;BME280;68282;42.698;23.350;2024-03-22T00:09:57;95529.47;;;10.59;36.27
78894;BME280;68282;42.698;23.350;2024-03-22T00:12:22;95524.56;;;10.38;36.76
78894;BME280;68282;42.698;23.350;2024-03-22T00:14:48;95535.41;;;10.26;36.78
78894;BME280;68282;42.698;23.350;2024-03-22T00:17:16;95516.78;;;10.11;36.86
78894;BME280;68282;42.698;23.350;2024-03-22T00:19:42;95514.41;;;10.02;37.02
78894;BME280;68282;42.698;23.350;2024-03-22T00:22:07;95511.03;;;9.88;37.49
78894;BME280;68282;42.698;23.350;2024-03-22T00:24:33;95520.03;;;9.89;37.89
78894;BME280;68282;42.698;23.350;2024-03-22T00:26:58;95535.34;;;9.83;38.11
78894;BME280;68282;42.698;23.350;2024-03-22T00:29:24;95534.38;;;9.78;38.42
78894;BME280;68282;42.698;23.350;2024-03-22T00:31:51;95524.72;;;9.63;38.25
78894;BME280;68282;42.698;23.350;2024-03-22T00:34:17;95535.91;;;9.55;38.23
78894;BME280;68282;42.698;23.350;2024-03-22T00:36:42;95538.84;;;9.53;38.65
78894;BME280;68282;42.698;23.350;2024-03-22T00:39:08;95544.84;;;9.55;38.31
78894;BME280;68282;42.698;23.350;2024-03-22T00:41:33;95549.47;;;9.55;38.50
78894;BME280;68282;42.698;23.350;2024-03-22T00:43:59;95548.94;;;9.46;38.82
78894;BME280;68282;42.698;23.350;2024-03-22T00:46:24;95538.06;;;9.46;38.66
78894;BME280;68282;42.698;23.350;2024-03-22T00:48:50;95527.22;;;9.46;38.74
78894;BME280;68282;42.698;23.350;2024-03-22T00:51:15;95521.13;;;9.32;39.16
78894;BME280;68282;42.698;23.350;2024-03-22T00:53:41;95532.50;;;9.41;39.10
78894;BME280;68282;42.698;23.350;2024-03-22T00:56:06;95520.50;;;9.30;38.87
78894;BME280;68282;42.698;23.350;2024-03-22T00:58:32;95513.41;;;9.29;39.34
78894;BME280;68282;42.698;23.350;2024-03-22T01:00:58;95533.19;;;9.36;39.50
78894;BME280;68282;42.698;23.350;2024-03-22T01:03:24;95526.41;;;9.46;39.80
78894;BME280;68282;42.698;23.350;2024-03-22T01:05:49;95523.69;;;9.46;39.96
78894;BME280;68282;42.698;23.350;2024-03-22T01:08:15;95521.94;;;9.51;39.52
78894;BME280;68282;42.698;23.350;2024-03-22T01:10:41;95540.72;;;9.53;39.39
78894;BME280;68282;42.698;23.350;2024-03-22T01:13:06;95546.53;;;9.56;39.28
78894;BME280;68282;42.698;23.350;2024-03-22T01:15:33;95537.94;;;9.59;39.72
78894;BME280;68282;42.698;23.350;2024-03-22T01:17:58;95529.03;;;9.52;38.90
78894;BME280;68282;42.698;23.350;2024-03-22T01:20:24;95543.72;;;9.63;38.34
78894;BME280;68282;42.698;23.350;2024-03-22T01:22:49;95540.66;;;9.59;38.12
78894;BME280;68282;42.698;23.350;2024-03-22T01:25:15;95525.19;;;9.41;38.91
78894;BME280;68282;42.698;23.350;2024-03-22T01:27:40;95528.94;;;9.40;39.24
78894;BME280;68282;42.698;23.350;2024-03-22T01:30:06;95523.16;;;9.37;39.57
78894;BME280;68282;42.698;23.350;2024-03-22T01:32:32;95534.38;;;9.40;39.29
78894;BME280;68282;42.698;23.350;2024-03-22T01:34:57;95532.78;;;9.33;39.14
78894;BME280;68282;42.698;23.350;2024-03-22T01:37:23;95518.03;;;9.28;39.41
78894;BME280;68282;42.698;23.350;2024-03-22T01:39:49;95533.19;;;9.36;39.24
78894;BME280;68282;42.698;23.350;2024-03-22T01:42:15;95532.41;;;9.29;40.40
78894;BME280;68282;42.698;23.350;2024-03-22T01:44:41;95522.91;;;9.20;40.36
78894;BME280;68282;42.698;23.350;2024-03-22T01:47:06;95537.53;;;9.19;40.87
78894;BME280;68282;42.698;23.350;2024-03-22T01:49:32;95536.94;;;9.17;41.03
78894;BME280;68282;42.698;23.350;2024-03-22T01:54:33;95529.31;;;9.07;40.36
78894;BME280;68282;42.698;23.350;2024-03-22T01:56:58;95541.16;;;9.12;40.96
78894;BME280;68282;42.698;23.350;2024-03-22T01:59:24;95536.78;;;9.11;40.87
78894;BME280;68282;42.698;23.350;2024-03-22T02:01:50;95532.84;;;9.07;40.73
78894;BME280;68282;42.698;23.350;2024-03-22T02:04:16;95530.66;;;8.97;41.32
78894;BME280;68282;42.698;23.350;2024-03-22T02:06:42;95527.09;;;8.97;41.23
78894;BME280;68282;42.698;23.350;2024-03-22T02:09:07;95530.88;;;8.96;41.35
78894;BME280;68282;42.698;23.350;2024-03-22T02:11:36;95537.88;;;8.85;40.89
78894;BME280;68282;42.698;23.350;2024-03-22T02:14:03;95536.41;;;8.82;41.46
78894;BME280;68282;42.698;23.350;2024-03-22T02:16:29;95540.78;;;8.84;41.32
78894;BME280;68282;42.698;23.350;2024-03-22T02:18:55;95532.69;;;8.77;41.17
78894;BME280;68282;42.698;23.350;2024-03-22T02:21:20;95541.69;;;8.77;41.58
78894;BME280;68282;42.698;23.350;2024-03-22T02:23:46;95527.13;;;8.72;40.88
78894;BME280;68282;42.698;23.350;2024-03-22T02:26:11;95543.13;;;8.80;41.07
78894;BME280;68282;42.698;23.350;2024-03-22T02:28:42;95524.03;;;8.68;40.74
78894;BME280;68282;42.698;23.350;2024-03-22T02:36:58;95543.16;;;8.73;41.39
78894;BME280;68282;42.698;23.350;2024-03-22T02:39:24;95534.28;;;8.66;41.94
78894;BME280;68282;42.698;23.350;2024-03-22T02:41:51;95556.72;;;8.73;41.83
78894;BME280;68282;42.698;23.350;2024-03-22T02:44:16;95546.78;;;8.67;42.00
78894;BME280;68282;42.698;23.350;2024-03-22T02:46:42;95530.84;;;8.52;41.56
78894;BME280;68282;42.698;23.350;2024-03-22T02:49:08;95556.34;;;8.70;41.74
78894;BME280;68282;42.698;23.350;2024-03-22T02:51:33;95553.69;;;8.63;41.81
78894;BME280;68282;42.698;23.350;2024-03-22T02:53:59;95561.81;;;8.63;42.11
78894;BME280;68282;42.698;23.350;2024-03-22T02:56:24;95551.47;;;8.53;42.14
78894;BME280;68282;42.698;23.350;2024-03-22T02:58:51;95541.31;;;8.42;42.80
78894;BME280;68282;42.698;23.350;2024-03-22T03:01:18;95552.19;;;8.35;42.28
78894;BME280;68282;42.698;23.350;2024-03-22T03:03:44;95571.44;;;8.27;42.11
78894;BME280;68282;42.698;23.350;2024-03-22T03:06:09;95570.44;;;8.21;42.21
78894;BME280;68282;42.698;23.350;2024-03-22T03:11:16;95577.25;;;8.30;42.58
78894;BME280;68282;42.698;23.350;2024-03-22T03:13:42;95566.28;;;8.12;42.12
78894;BME280;68282;42.698;23.350;2024-03-22T03:16:08;95575.91;;;8.08;42.47
78894;BME280;68282;42.698;23.350;2024-03-22T03:18:36;95598.53;;;8.27;42.71
78894;BME280;68282;42.698;23.350;2024-03-22T03:26:23;95614.28;;;7.98;42.71
78894;BME280;68282;42.698;23.350;2024-03-22T03:39:07;95612.50;;;7.71;43.23
78894;BME280;68282;42.698;23.350;2024-03-22T03:44:38;95618.34;;;7.68;42.73
78894;BME280;68282;42.698;23.350;2024-03-22T03:53:03;95600.31;;;7.42;43.59
78894;BME280;68282;42.698;23.350;2024-03-22T03:55:28;95597.03;;;7.26;43.75
78894;BME280;68282;42.698;23.350;2024-03-22T03:57:54;95614.88;;;7.34;43.89
78894;BME280;68282;42.698;23.350;2024-03-22T04:00:20;95597.22;;;7.18;43.74
78894;BME280;68282;42.698;23.350;2024-03-22T04:02:45;95614.50;;;7.24;44.17
78894;BME280;68282;42.698;23.350;2024-03-22T04:05:12;95626.16;;;7.24;43.88
78894;BME280;68282;42.698;23.350;2024-03-22T04:07:38;95596.41;;;7.11;44.17
78894;BME280;68282;42.698;23.350;2024-03-22T04:10:08;95625.75;;;7.27;44.19
78894;BME280;68282;42.698;23.350;2024-03-22T04:12:46;95627.19;;;7.30;44.57
78894;BME280;68282;42.698;23.350;2024-03-22T04:15:12;95629.50;;;7.26;44.93
78894;BME280;68282;42.698;23.350;2024-03-22T04:17:37;95628.00;;;7.31;44.88
78894;BME280;68282;42.698;23.350;2024-03-22T04:20:03;95625.94;;;7.26;44.60
78894;BME280;68282;42.698;23.350;2024-03-22T04:22:30;95633.88;;;7.27;44.82
78894;BME280;68282;42.698;23.350;2024-03-22T04:24:56;95637.81;;;7.32;44.96
78894;BME280;68282;42.698;23.350;2024-03-22T04:27:21;95635.72;;;7.34;44.44
78894;BME280;68282;42.698;23.350;2024-03-22T04:29:47;95628.66;;;7.19;45.34
78894;BME280;68282;42.698;23.350;2024-03-22T04:32:14;95651.31;;;7.32;44.95
78894;BME280;68282;42.698;23.350;2024-03-22T04:34:43;95648.41;;;7.33;45.10
78894;BME280;68282;42.698;23.350;2024-03-22T04:37:08;95619.09;;;7.10;45.44
78894;BME280;68282;42.698;23.350;2024-03-22T04:39:35;95627.00;;;7.11;44.67
78894;BME280;68282;42.698;23.350;2024-03-22T04:42:01;95627.84;;;7.12;44.62
78894;BME280;68282;42.698;23.350;2024-03-22T04:44:27;95651.75;;;7.28;44.52
78894;BME280;68282;42.698;23.350;2024-03-22T04:46:52;95663.81;;;7.26;44.61
78894;BME280;68282;42.698;23.350;2024-03-22T04:49:18;95640.94;;;7.15;44.93
78894;BME280;68282;42.698;23.350;2024-03-22T04:51:45;95661.53;;;7.36;44.79
78894;BME280;68282;42.698;23.350;2024-03-22T04:54:12;95639.91;;;7.16;44.59
78894;BME280;68282;42.698;23.350;2024-03-22T04:56:40;95643.66;;;7.15;45.30
78894;BME280;68282;42.698;23.350;2024-03-22T04:59:11;95642.81;;;7.21;44.66
78894;BME280;68282;42.698;23.350;2024-03-22T05:04:17;95639.28;;;7.27;44.57
78894;BME280;68282;42.698;23.350;2024-03-22T05:06:46;95656.94;;;7.37;45.22
78894;BME280;68282;42.698;23.350;2024-03-22T05:09:12;95661.31;;;7.38;45.26
78894;BME280;68282;42.698;23.350;2024-03-22T05:11:37;95642.81;;;7.35;44.85
78894;BME280;68282;42.698;23.350;2024-03-22T05:14:03;95651.50;;;7.50;44.59
78894;BME280;68282;42.698;23.350;2024-03-22T05:16:28;95658.16;;;7.48;44.37
78894;BME280;68282;42.698;23.350;2024-03-22T05:18:54;95670.66;;;7.62;44.86
78894;BME280;68282;42.698;23.350;2024-03-22T05:21:20;95672.94;;;7.65;44.74
78894;BME280;68282;42.698;23.350;2024-03-22T05:23:46;95680.63;;;7.68;44.34
78894;BME280;68282;42.698;23.350;2024-03-22T05:26:12;95651.50;;;7.57;44.75
78894;BME280;68282;42.698;23.350;2024-03-22T05:28:38;95685.38;;;7.80;44.42
78894;BME280;68282;42.698;23.350;2024-03-22T05:31:03;95686.66;;;7.77;44.03
78894;BME280;68282;42.698;23.350;2024-03-22T05:33:29;95677.88;;;7.82;44.11
78894;BME280;68282;42.698;23.350;2024-03-22T05:35:54;95679.94;;;7.86;43.99
78894;BME280;68282;42.698;23.350;2024-03-22T05:38:20;95689.31;;;7.97;44.14
78894;BME280;68282;42.698;23.350;2024-03-22T05:40:45;95690.53;;;8.01;44.11
78894;BME280;68282;42.698;23.350;2024-03-22T05:43:13;95691.56;;;8.07;44.33
78894;BME280;68282;42.698;23.350;2024-03-22T05:45:40;95693.88;;;8.03;43.21
78894;BME280;68282;42.698;23.350;2024-03-22T05:48:05;95685.13;;;8.01;43.19
78894;BME280;68282;42.698;23.350;2024-03-22T05:50:31;95686.97;;;8.08;43.09
78894;BME280;68282;42.698;23.350;2024-03-22T05:52:56;95697.97;;;8.19;42.92
78894;BME280;68282;42.698;23.350;2024-03-22T05:55:22;95687.56;;;8.16;42.60
78894;BME280;68282;42.698;23.350;2024-03-22T05:57:47;95706.28;;;8.31;42.67
78894;BME280;68282;42.698;23.350;2024-03-22T06:00:13;95693.16;;;8.28;43.51
78894;BME280;68282;42.698;23.350;2024-03-22T06:02:39;95704.59;;;8.37;42.98
78894;BME280;68282;42.698;23.350;2024-03-22T06:05:05;95704.38;;;8.32;42.86
78894;BME280;68282;42.698;23.350;2024-03-22T06:07:30;95709.16;;;8.36;43.80
78894;BME280;68282;42.698;23.350;2024-03-22T06:10:04;95699.38;;;8.35;42.40
78894;BME280;68282;42.698;23.350;2024-03-22T06:12:33;95691.84;;;8.38;42.75
78894;BME280;68282;42.698;23.350;2024-03-22T06:14:58;95693.09;;;8.42;42.85
78894;BME280;68282;42.698;23.350;2024-03-22T06:17:24;95695.38;;;8.38;43.08
78894;BME280;68282;42.698;23.350;2024-03-22T06:19:50;95685.41;;;8.32;43.70
78894;BME280;68282;42.698;23.350;2024-03-22T06:22:16;95699.56;;;8.47;42.83
78894;BME280;68282;42.698;23.350;2024-03-22T06:24:41;95694.94;;;8.55;42.98
78894;BME280;68282;42.698;23.350;2024-03-22T06:27:07;95699.44;;;8.68;43.33
78894;BME280;68282;42.698;23.350;2024-03-22T06:29:33;95706.88;;;8.79;43.22
78894;BME280;68282;42.698;23.350;2024-03-22T06:31:59;95706.84;;;8.86;42.78
78894;BME280;68282;42.698;23.350;2024-03-22T06:34:24;95701.63;;;8.91;42.55
78894;BME280;68282;42.698;23.350;2024-03-22T06:36:50;95681.34;;;8.93;42.34
78894;BME280;68282;42.698;23.350;2024-03-22T06:39:16;95702.50;;;9.10;42.32
78894;BME280;68282;42.698;23.350;2024-03-22T06:41:42;95691.28;;;9.06;42.55
78894;BME280;68282;42.698;23.350;2024-03-22T06:44:08;95706.78;;;9.24;42.69
78894;BME280;68282;42.698;23.350;2024-03-22T06:46:39;95695.72;;;9.26;42.57
78894;BME280;68282;42.698;23.350;2024-03-22T06:49:05;95694.59;;;9.34;41.93
78894;BME280;68282;42.698;23.350;2024-03-22T06:51:31;95711.84;;;9.46;41.45
78894;BME280;68282;42.698;23.350;2024-03-22T06:53:56;95708.31;;;9.46;41.52
78894;BME280;68282;42.698;23.350;2024-03-22T06:56:22;95721.16;;;9.57;41.59
78894;BME280;68282;42.698;23.350;2024-03-22T06:58:47;95713.44;;;9.54;40.88
78894;BME280;68282;42.698;23.350;2024-03-22T07:01:12;95715.44;;;9.65;40.66
78894;BME280;68282;42.698;23.350;2024-03-22T07:03:38;95715.59;;;9.70;40.37
78894;BME280;68282;42.698;23.350;2024-03-22T07:06:04;95728.28;;;9.77;40.69
78894;BME280;68282;42.698;23.350;2024-03-22T07:08:31;95710.31;;;9.75;41.05
78894;BME280;68282;42.698;23.350;2024-03-22T07:10:57;95721.00;;;9.96;40.53
78894;BME280;68282;42.698;23.350;2024-03-22T07:13:22;95706.06;;;9.86;40.06
78894;BME280;68282;42.698;23.350;2024-03-22T07:15:48;95720.38;;;9.94;39.92
78894;BME280;68282;42.698;23.350;2024-03-22T07:18:14;95732.25;;;9.99;39.94
78894;BME280;68282;42.698;23.350;2024-03-22T07:20:41;95707.59;;;9.75;40.34
78894;BME280;68282;42.698;23.350;2024-03-22T07:23:07;95708.97;;;9.85;40.32
78894;BME280;68282;42.698;23.350;2024-03-22T07:25:32;95730.06;;;10.08;40.11
78894;BME280;68282;42.698;23.350;2024-03-22T07:27:58;95716.63;;;10.13;40.10
78894;BME280;68282;42.698;23.350;2024-03-22T07:30:24;95715.94;;;10.18;39.89
78894;BME280;68282;42.698;23.350;2024-03-22T07:32:50;95704.91;;;10.31;40.74
78894;BME280;68282;42.698;23.350;2024-03-22T07:35:16;95716.38;;;10.40;39.53
78894;BME280;68282;42.698;23.350;2024-03-22T07:37:41;95723.69;;;10.58;39.61
78894;BME280;68282;42.698;23.350;2024-03-22T07:40:07;95713.97;;;10.62;38.64
78894;BME280;68282;42.698;23.350;2024-03-22T07:42:33;95714.94;;;10.68;38.60
78894;BME280;68282;42.698;23.350;2024-03-22T07:45:00;95724.81;;;10.81;38.21
78894;BME280;68282;42.698;23.350;2024-03-22T07:47:25;95723.31;;;10.85;38.31
78894;BME280;68282;42.698;23.350;2024-03-22T07:49:51;95709.09;;;10.83;38.02
78894;BME280;68282;42.698;23.350;2024-03-22T07:52:17;95720.84;;;10.95;38.40
78894;BME280;68282;42.698;23.350;2024-03-22T07:54:42;95718.75;;;11.09;38.64
78894;BME280;68282;42.698;23.350;2024-03-22T07:57:08;95712.06;;;11.12;37.74
78894;BME280;68282;42.698;23.350;2024-03-22T07:59:35;95714.34;;;11.27;37.39
78894;BME280;68282;42.698;23.350;2024-03-22T08:02:01;95719.78;;;11.39;37.44
78894;BME280;68282;42.698;23.350;2024-03-22T08:04:28;95716.16;;;11.45;37.37
78894;BME280;68282;42.698;23.350;2024-03-22T08:06:55;95715.56;;;11.55;37.34
78894;BME280;68282;42.698;23.350;2024-03-22T08:09:21;95715.19;;;11.63;37.22
78894;BME280;68282;42.698;23.350;2024-03-22T08:11:47;95700.75;;;11.63;36.33
78894;BME280;68282;42.698;23.350;2024-03-22T08:14:13;95712.25;;;11.76;35.75
78894;BME280;68282;42.698;23.350;2024-03-22T08:16:38;95707.03;;;11.75;36.41
78894;BME280;68282;42.698;23.350;2024-03-22T08:19:04;95683.69;;;11.67;35.52
78894;BME280;68282;42.698;23.350;2024-03-22T08:21:29;95710.81;;;11.86;35.40
78894;BME280;68282;42.698;23.350;2024-03-22T08:23:56;95707.91;;;11.99;34.85
78894;BME280;68282;42.698;23.350;2024-03-22T08:26:22;95699.84;;;12.04;34.88
78894;BME280;68282;42.698;23.350;2024-03-22T08:28:48;95702.66;;;12.10;34.75
78894;BME280;68282;42.698;23.350;2024-03-22T08:31:14;95694.50;;;12.10;34.53
78894;BME280;68282;42.698;23.350;2024-03-22T08:33:40;95697.22;;;12.10;35.02
78894;BME280;68282;42.698;23.350;2024-03-22T08:36:06;95699.94;;;12.21;34.83
78894;BME280;68282;42.698;23.350;2024-03-22T08:38:31;95681.06;;;12.20;35.18
78894;BME280;68282;42.698;23.350;2024-03-22T08:40:57;95708.09;;;12.45;35.10
78894;BME280;68282;42.698;23.350;2024-03-22T08:43:23;95700.59;;;12.52;34.91
78894;BME280;68282;42.698;23.350;2024-03-22T08:45:51;95701.50;;;12.58;34.95
78894;BME280;68282;42.698;23.350;2024-03-22T08:48:17;95707.31;;;12.62;34.16
78894;BME280;68282;42.698;23.350;2024-03-22T08:50:43;95706.59;;;12.66;34.30
78894;BME280;68282;42.698;23.350;2024-03-22T08:53:09;95703.72;;;12.73;34.37
78894;BME280;68282;42.698;23.350;2024-03-22T08:55:34;95696.34;;;12.74;33.69
78894;BME280;68282;42.698;23.350;2024-03-22T08:58:00;95699.97;;;12.91;33.96
78894;BME280;68282;42.698;23.350;2024-03-22T09:00:25;95694.84;;;12.95;33.76
78894;BME280;68282;42.698;23.350;2024-03-22T09:02:52;95699.91;;;13.03;33.08
78894;BME280;68282;42.698;23.350;2024-03-22T09:05:17;95695.88;;;13.06;33.16
78894;BME280;68282;42.698;23.350;2024-03-22T09:07:43;95701.72;;;12.97;32.76
78894;BME280;68282;42.698;23.350;2024-03-22T09:10:09;95683.72;;;12.84;33.34
78894;BME280;68282;42.698;23.350;2024-03-22T09:12:35;95681.66;;;12.92;33.76
78894;BME280;68282;42.698;23.350;2024-03-22T09:15:01;95685.09;;;12.99;33.33
78894;BME280;68282;42.698;23.350;2024-03-22T09:17:27;95685.34;;;13.14;32.77
78894;BME280;68282;42.698;23.350;2024-03-22T09:19:52;95683.06;;;13.23;32.52
78894;BME280;68282;42.698;23.350;2024-03-22T09:22:18;95664.75;;;13.24;32.89
78894;BME280;68282;42.698;23.350;2024-03-22T09:24:43;95679.09;;;13.31;32.47
78894;BME280;68282;42.698;23.350;2024-03-22T09:27:09;95673.88;;;13.29;32.60
78894;BME280;68282;42.698;23.350;2024-03-22T09:29:38;95678.03;;;13.32;32.29
78894;BME280;68282;42.698;23.350;2024-03-22T09:32:04;95666.94;;;13.39;32.50
78894;BME280;68282;42.698;23.350;2024-03-22T09:34:30;95673.00;;;13.41;32.72
78894;BME280;68282;42.698;23.350;2024-03-22T09:36:57;95658.09;;;13.49;31.42
78894;BME280;68282;42.698;23.350;2024-03-22T09:39:22;95647.59;;;13.40;31.97
78894;BME280;68282;42.698;23.350;2024-03-22T09:41:50;95667.47;;;13.53;32.88
78894;BME280;68282;42.698;23.350;2024-03-22T09:44:18;95663.22;;;13.62;32.79
78894;BME280;68282;42.698;23.350;2024-03-22T09:46:46;95653.06;;;13.57;32.08
78894;BME280;68282;42.698;23.350;2024-03-22T09:49:12;95661.16;;;13.69;32.19
78894;BME280;68282;42.698;23.350;2024-03-22T09:51:42;95661.81;;;13.76;31.67
78894;BME280;68282;42.698;23.350;2024-03-22T09:54:11;95642.34;;;13.73;31.54
78894;BME280;68282;42.698;23.350;2024-03-22T09:56:41;95663.63;;;13.88;32.40
78894;BME280;68282;42.698;23.350;2024-03-22T09:59:07;95655.97;;;13.90;31.07
78894;BME280;68282;42.698;23.350;2024-03-22T10:01:34;95664.63;;;13.82;31.56
78894;BME280;68282;42.698;23.350;2024-03-22T10:04:00;95645.97;;;13.79;30.89
78894;BME280;68282;42.698;23.350;2024-03-22T10:06:26;95642.50;;;13.83;30.56
78894;BME280;68282;42.698;23.350;2024-03-22T10:08:54;95647.53;;;13.91;31.09
78894;BME280;68282;42.698;23.350;2024-03-22T10:11:19;95646.56;;;13.81;30.46
78894;BME280;68282;42.698;23.350;2024-03-22T10:13:45;95639.84;;;13.88;31.25
78894;BME280;68282;42.698;23.350;2024-03-22T10:16:12;95641.91;;;13.98;30.90
78894;BME280;68282;42.698;23.350;2024-03-22T10:18:37;95638.91;;;14.00;31.35
78894;BME280;68282;42.698;23.350;2024-03-22T10:21:04;95641.19;;;14.08;30.47
78894;BME280;68282;42.698;23.350;2024-03-22T10:23:30;95634.41;;;14.11;30.65
78894;BME280;68282;42.698;23.350;2024-03-22T10:25:57;95636.94;;;14.17;29.84
78894;BME280;68282;42.698;23.350;2024-03-22T10:28:26;95632.94;;;14.25;29.96
78894;BME280;68282;42.698;23.350;2024-03-22T10:30:52;95633.63;;;14.37;31.66
78894;BME280;68282;42.698;23.350;2024-03-22T10:33:19;95618.38;;;14.42;30.15
78894;BME280;68282;42.698;23.350;2024-03-22T10:35:46;95622.91;;;14.58;30.15
78894;BME280;68282;42.698;23.350;2024-03-22T10:38:12;95621.91;;;14.64;29.92
78894;BME280;68282;42.698;23.350;2024-03-22T10:40:40;95615.50;;;14.76;29.27
78894;BME280;68282;42.698;23.350;2024-03-22T10:43:09;95592.72;;;14.70;29.15
78894;BME280;68282;42.698;23.350;2024-03-22T10:45:35;95612.69;;;14.98;29.99
78894;BME280;68282;42.698;23.350;2024-03-22T10:48:05;95606.41;;;15.03;29.17
78894;BME280;68282;42.698;23.350;2024-03-22T10:50:33;95596.69;;;15.17;29.96
78894;BME280;68282;42.698;23.350;2024-03-22T10:53:03;95592.00;;;15.12;28.45
78894;BME280;68282;42.698;23.350;2024-03-22T10:55:37;95584.50;;;15.03;28.56
78894;BME280;68282;42.698;23.350;2024-03-22T10:58:04;95592.25;;;15.11;28.57
78894;BME280;68282;42.698;23.350;2024-03-22T11:00:32;95578.72;;;15.32;29.47
78894;BME280;68282;42.698;23.350;2024-03-22T11:02:58;95577.72;;;15.43;29.21
78894;BME280;68282;42.698;23.350;2024-03-22T11:05:23;95575.28;;;15.52;28.02
78894;BME280;68282;42.698;23.350;2024-03-22T11:08:03;95583.63;;;15.72;28.72
78894;BME280;68282;42.698;23.350;2024-03-22T11:10:34;95570.53;;;15.80;28.45
78894;BME280;68282;42.698;23.350;2024-03-22T11:13:01;95580.22;;;15.87;27.99
78894;BME280;68282;42.698;23.350;2024-03-22T11:15:29;95571.47;;;16.01;26.91
78894;BME280;68282;42.698;23.350;2024-03-22T11:17:55;95564.13;;;16.12;27.38
78894;BME280;68282;42.698;23.350;2024-03-22T11:20:21;95563.91;;;16.23;27.57
78894;BME280;68282;42.698;23.350;2024-03-22T11:22:46;95555.94;;;16.27;26.58
78894;BME280;68282;42.698;23.350;2024-03-22T11:25:12;95557.81;;;16.11;27.44
78894;BME280;68282;42.698;23.350;2024-03-22T11:27:38;95571.31;;;16.28;27.25
78894;BME280;68282;42.698;23.350;2024-03-22T11:30:04;95553.22;;;16.37;27.12
78894;BME280;68282;42.698;23.350;2024-03-22T11:32:30;95556.84;;;16.48;26.32
78894;BME280;68282;42.698;23.350;2024-03-22T11:34:56;95559.63;;;16.53;27.45
78894;BME280;68282;42.698;23.350;2024-03-22T11:37:22;95543.69;;;16.61;27.03
78894;BME280;68282;42.698;23.350;2024-03-22T11:39:48;95545.09;;;16.74;26.75
78894;BME280;68282;42.698;23.350;2024-03-22T11:42:17;95547.28;;;16.82;25.39
78894;BME280;68282;42.698;23.350;2024-03-22T11:44:43;95542.09;;;16.91;26.07
78894;BME280;68282;42.698;23.350;2024-03-22T11:47:09;95530.03;;;17.02;25.99
78894;BME280;68282;42.698;23.350;2024-03-22T11:49:34;95539.09;;;16.97;26.88
78894;BME280;68282;42.698;23.350;2024-03-22T11:52:00;95539.09;;;17.08;31.72
78894;BME280;68282;42.698;23.350;2024-03-22T11:54:26;95525.31;;;16.92;26.78
78894;BME280;68282;42.698;23.350;2024-03-22T11:56:55;95526.75;;;17.05;26.24
78894;BME280;68282;42.698;23.350;2024-03-22T11:59:21;95532.22;;;17.10;25.19
78894;BME280;68282;42.698;23.350;2024-03-22T12:01:47;95528.38;;;17.22;25.31
78894;BME280;68282;42.698;23.350;2024-03-22T12:04:13;95517.38;;;17.27;25.50
78894;BME280;68282;42.698;23.350;2024-03-22T12:06:44;95517.38;;;17.37;25.17
78894;BME280;68282;42.698;23.350;2024-03-22T12:09:11;95501.41;;;17.34;25.23
78894;BME280;68282;42.698;23.350;2024-03-22T12:11:38;95505.00;;;17.45;25.43
78894;BME280;68282;42.698;23.350;2024-03-22T12:14:04;95501.97;;;17.41;23.96
78894;BME280;68282;42.698;23.350;2024-03-22T12:16:30;95499.22;;;17.21;23.95
78894;BME280;68282;42.698;23.350;2024-03-22T12:18:55;95492.94;;;17.20;24.51
78894;BME280;68282;42.698;23.350;2024-03-22T12:21:22;95495.38;;;17.32;24.33
78894;BME280;68282;42.698;23.350;2024-03-22T12:23:48;95488.50;;;17.40;24.24
78894;BME280;68282;42.698;23.350;2024-03-22T12:26:13;95500.53;;;17.59;23.92
78894;BME280;68282;42.698;23.350;2024-03-22T12:28:39;95488.16;;;17.67;24.40
78894;BME280;68282;42.698;23.350;2024-03-22T12:31:04;95488.16;;;17.72;25.32
78894;BME280;68282;42.698;23.350;2024-03-22T12:33:30;95493.09;;;17.70;23.70
78894;BME280;68282;42.698;23.350;2024-03-22T12:35:56;95499.97;;;17.73;24.28
78894;BME280;68282;42.698;23.350;2024-03-22T12:38:23;95474.13;;;17.69;23.36
78894;BME280;68282;42.698;23.350;2024-03-22T12:40:49;95481.56;;;17.58;23.58
78894;BME280;68282;42.698;23.350;2024-03-22T12:43:15;95476.63;;;17.55;24.11
78894;BME280;68282;42.698;23.350;2024-03-22T12:45:40;95470.53;;;17.68;24.39
78894;BME280;68282;42.698;23.350;2024-03-22T12:48:06;95474.38;;;17.67;24.25
78894;BME280;68282;42.698;23.350;2024-03-22T12:50:32;95473.03;;;17.59;24.33
78894;BME280;68282;42.698;23.350;2024-03-22T12:53:00;95474.94;;;17.74;24.00
78894;BME280;68282;42.698;23.350;2024-03-22T12:58:05;95485.66;;;17.76;24.88
78894;BME280;68282;42.698;23.350;2024-03-22T13:00:30;95470.84;;;17.61;23.28
78894;BME280;68282;42.698;23.350;2024-03-22T13:02:58;95470.06;;;17.51;24.07
78894;BME280;68282;42.698;23.350;2024-03-22T13:05:27;95462.34;;;17.42;24.18
78894;BME280;68282;42.698;23.350;2024-03-22T13:07:59;95443.75;;;17.19;24.45
78894;BME280;68282;42.698;23.350;2024-03-22T13:13:02;95470.41;;;17.03;24.67
78894;BME280;68282;42.698;23.350;2024-03-22T14:13:15;95409.69;;;16.63;24.90
78894;BME280;68282;42.698;23.350;2024-03-22T15:28:42;95382.50;;;16.61;25.73
78894;BME280;68282;42.698;23.350;2024-03-22T15:31:14;95377.56;;;16.63;26.06
78894;BME280;68282;42.698;23.350;2024-03-22T15:33:39;95381.97;;;16.69;26.05
78894;BME280;68282;42.698;23.350;2024-03-22T15:39:03;95390.75;;;16.56;26.16
78894;BME280;68282;42.698;23.350;2024-03-22T15:41:33;95386.91;;;16.52;26.16
78894;BME280;68282;42.698;23.350;2024-03-22T15:44:02;95387.72;;;16.47;26.49
78894;BME280;68282;42.698;23.350;2024-03-22T15:46:41;95395.97;;;16.42;26.21